createdAt,value
2019-01-09T00:01:29.746Z,52.67
2019-01-09T00:03:58.522Z,52.03
2019-01-09T00:06:26.856Z,52.90
2019-01-09T00:08:55.293Z,53.07
2019-01-09T00:11:23.670Z,51.70
2019-01-09T00:13:52.050Z,52.37
2019-01-09T00:16:20.970Z,54.03
2019-01-09T00:18:49.614Z,52.33
2019-01-09T00:21:18.349Z,54.37
2019-01-09T00:23:46.927Z,53.63
2019-01-09T00:26:15.630Z,53.63
2019-01-09T00:28:44.046Z,52.13
2019-01-09T00:31:12.530Z,54.03
2019-01-09T00:33:41.029Z,52.47
2019-01-09T00:36:10.711Z,52.97
2019-01-09T00:38:40.548Z,52.90
2019-01-09T00:41:09.576Z,53.67
2019-01-09T00:43:38.212Z,47.50
2019-01-09T00:46:06.638Z,50.03
2019-01-09T00:48:35.168Z,48.50
2019-01-09T00:51:03.472Z,49.87
2019-01-09T00:53:31.875Z,49.50
2019-01-09T00:56:00.550Z,45.93
2019-01-09T00:58:29.225Z,46.83
2019-01-09T01:00:57.656Z,45.13
2019-01-09T01:04:02.805Z,45.07
2019-01-09T01:07:14.353Z,46.00
2019-01-09T05:55:15.401Z,46.17
2019-01-09T05:57:51.944Z,53.90
2019-01-09T08:57:53.621Z,67.42
2019-01-09T09:14:46.493Z,68.40
2019-01-09T10:47:47.961Z,54.83
2019-01-09T10:50:32.066Z,55.30
2019-01-09T11:07:12.452Z,58.45
2019-01-09T11:09:46.435Z,52.47
2019-01-09T11:34:52.225Z,54.23
2019-01-09T11:37:33.224Z,50.93
2019-01-09T11:40:18.332Z,50.53
2019-01-09T11:42:55.180Z,46.60
2019-01-09T11:45:31.107Z,57.85
2019-01-09T11:47:59.867Z,51.03
2019-01-09T11:50:28.587Z,51.53
2019-01-09T11:52:57.288Z,51.92
2019-01-09T11:55:25.809Z,52.43
2019-01-09T11:57:54.780Z,55.27
2019-01-09T12:00:25.891Z,51.67
2019-01-09T12:02:54.908Z,51.50
2019-01-09T12:05:24.340Z,52.00
2019-01-09T12:07:53.136Z,50.23
2019-01-09T12:10:29.959Z,51.00
2019-01-09T12:12:52.761Z,52.93
2019-01-09T12:16:14.311Z,58.17
2019-01-09T12:18:44.023Z,57.58
2019-01-09T12:21:16.650Z,53.20
2019-01-09T12:23:43.744Z,51.40
2019-01-09T12:26:12.336Z,51.43
2019-01-09T12:28:41.107Z,50.50
2019-01-09T12:31:09.649Z,51.13
2019-01-09T12:33:38.346Z,46.48
2019-01-09T12:36:07.022Z,45.83
2019-01-09T12:38:35.633Z,48.07
2019-01-09T12:41:04.341Z,47.40
2019-01-09T12:43:33.060Z,47.47
2019-01-09T12:46:02.062Z,46.20
2019-01-09T12:48:30.703Z,46.80
2019-01-09T12:50:59.492Z,45.67
2019-01-09T12:53:33.823Z,43.57
2019-01-09T12:55:58.851Z,42.53
2019-01-09T12:58:27.524Z,36.87
2019-01-09T13:00:56.482Z,41.33
2019-01-09T13:03:25.213Z,41.43
2019-01-09T13:05:53.829Z,41.08
2019-01-09T13:08:22.815Z,41.17
2019-01-09T13:10:51.654Z,44.95
2019-01-09T13:13:20.375Z,37.27
2019-01-09T13:15:49.164Z,32.07
2019-01-09T13:18:17.880Z,32.87
2019-01-09T13:20:46.456Z,38.87
2019-01-09T13:23:15.310Z,40.13
2019-01-09T13:25:43.841Z,37.40
2019-01-09T13:28:13.716Z,35.43
2019-01-09T13:30:42.424Z,34.07
2019-01-09T13:33:11.046Z,29.77
2019-01-09T13:35:39.704Z,33.90
2019-01-09T13:38:08.439Z,29.83
2019-01-09T13:40:37.161Z,30.90
2019-01-09T13:43:05.941Z,35.68
2019-01-09T13:45:35.001Z,26.57
2019-01-09T13:48:03.877Z,34.65
2019-01-09T13:50:32.624Z,35.30
2019-01-09T13:53:01.335Z,31.93
2019-01-09T13:55:29.948Z,36.65
2019-01-09T13:57:58.505Z,35.80
2019-01-09T14:00:27.365Z,34.67
2019-01-09T14:02:56.364Z,34.27
2019-01-09T14:05:25.155Z,33.37
2019-01-09T14:07:53.869Z,36.43
2019-01-09T14:10:25.046Z,37.13
2019-01-09T14:12:53.753Z,33.50
2019-01-09T14:15:22.534Z,33.33
2019-01-09T14:17:51.319Z,33.73
2019-01-09T14:20:21.180Z,33.07
2019-01-09T14:22:53.028Z,32.17
2019-01-09T14:25:22.007Z,31.00
2019-01-09T14:27:50.665Z,30.10
2019-01-09T14:30:26.492Z,30.07
2019-01-09T14:32:55.359Z,30.23
2019-01-09T14:35:24.085Z,27.17
2019-01-09T14:37:52.875Z,27.53
2019-01-09T14:40:21.899Z,27.00
2019-01-09T14:42:50.709Z,26.83
2019-01-09T14:45:19.385Z,29.13
2019-01-09T14:47:49.047Z,30.00
2019-01-09T14:50:20.169Z,53.90
2019-01-09T14:52:48.968Z,55.67
2019-01-09T14:55:17.991Z,55.67
2019-01-09T14:57:46.935Z,54.13
2019-01-09T15:00:18.527Z,55.43
2019-01-09T15:02:47.082Z,56.10
2019-01-09T15:05:15.822Z,59.43
2019-01-09T15:07:44.409Z,57.13
2019-01-09T15:10:16.737Z,60.73
2019-01-09T15:12:45.525Z,58.60
2019-01-09T15:15:14.884Z,60.53
2019-01-09T15:17:43.901Z,59.37
2019-01-09T15:20:14.612Z,79.73
2019-01-09T15:22:43.612Z,64.63
2019-01-09T15:25:13.007Z,63.13
2019-01-09T15:27:41.736Z,63.53
2019-01-09T15:30:14.484Z,65.60
2019-01-09T15:32:43.110Z,67.07
2019-01-09T15:35:11.988Z,69.40
2019-01-09T15:37:40.700Z,70.73
2019-01-09T15:40:12.753Z,67.77
2019-01-09T15:42:41.549Z,67.77
2019-01-09T15:45:09.872Z,72.13
2019-01-09T15:47:38.299Z,77.17
2019-01-09T15:50:07.950Z,75.83
2019-01-09T15:52:36.764Z,74.33
2019-01-09T15:55:06.877Z,74.97
2019-01-09T15:57:35.179Z,74.73
2019-01-09T16:00:05.943Z,78.50
2019-01-09T16:02:34.548Z,76.13
2019-01-09T16:05:04.166Z,77.30
2019-01-09T16:07:32.641Z,79.72
2019-01-09T16:10:01.414Z,75.43
2019-01-09T16:12:30.319Z,85.43
2019-01-09T16:14:58.975Z,85.13
2019-01-09T16:17:27.825Z,84.83
2019-01-09T16:19:56.527Z,75.03
2019-01-09T16:25:08.550Z,91.53
2019-01-09T16:27:37.237Z,85.10
2019-01-09T16:30:09.311Z,85.53
2019-01-09T16:32:37.576Z,78.17
2019-01-09T16:35:06.477Z,80.30
2019-01-09T16:37:34.747Z,73.63
2019-01-09T16:40:03.814Z,86.20
2019-01-09T16:42:32.657Z,77.30
2019-01-09T16:45:01.329Z,107.40
2019-01-09T16:47:30.097Z,102.53
2019-01-09T16:49:59.612Z,77.43
2019-01-09T16:52:28.551Z,84.73
2019-01-09T16:54:57.451Z,89.07
2019-01-09T16:57:26.079Z,83.17
2019-01-09T16:59:54.676Z,79.27
2019-01-09T17:02:23.059Z,77.63
2019-01-09T17:04:51.454Z,81.83
2019-01-09T17:07:19.957Z,85.33
2019-01-09T17:09:48.492Z,89.73
2019-01-09T17:12:17.123Z,103.87
2019-01-09T17:14:52.054Z,86.97
2019-01-09T17:17:20.419Z,84.70
2019-01-09T17:19:48.858Z,104.13
2019-01-09T17:22:17.257Z,94.97
2019-01-09T17:24:47.212Z,90.33
2019-01-09T17:27:15.684Z,88.07
2019-01-09T17:29:44.359Z,83.27
2019-01-09T17:32:13.055Z,91.60
2019-01-09T17:34:41.598Z,78.13
2019-01-09T17:37:10.723Z,78.70
2019-01-09T17:39:39.511Z,80.87
2019-01-09T17:42:07.883Z,80.30
2019-01-09T17:44:36.698Z,78.90
2019-01-09T17:47:05.116Z,80.90
2019-01-09T17:49:34.321Z,81.10
2019-01-09T17:52:03.105Z,82.67
2019-01-09T17:54:31.624Z,81.17
2019-01-09T17:57:00.278Z,81.37
2019-01-09T17:59:29.989Z,78.20
2019-01-09T18:01:58.830Z,81.03
2019-01-09T18:04:27.656Z,82.57
2019-01-09T18:06:56.448Z,82.57
2019-01-09T18:09:24.786Z,79.60
2019-01-09T18:11:53.283Z,79.17
2019-01-09T18:14:21.651Z,81.63
2019-01-09T18:16:50.437Z,83.13
2019-01-09T18:19:19.121Z,83.57
2019-01-09T18:21:47.747Z,81.97
2019-01-09T18:24:16.363Z,81.90
2019-01-09T18:26:45.137Z,83.00
2019-01-09T18:29:13.799Z,79.37
2019-01-09T18:32:18.323Z,81.80
2019-01-09T18:34:58.540Z,88.37
2019-01-09T18:37:46.262Z,82.43
2019-01-09T18:41:00.927Z,82.60
2019-01-09T18:43:34.951Z,89.97
2019-01-09T18:46:33.536Z,96.23
2019-01-09T18:49:21.644Z,90.17
2019-01-09T18:52:11.089Z,88.20
2019-01-09T18:54:40.311Z,90.30
2019-01-09T18:57:09.000Z,90.33
2019-01-09T18:59:37.376Z,96.20
2019-01-09T19:02:05.774Z,95.67
2019-01-09T19:04:34.427Z,88.60
2019-01-09T19:07:05.175Z,90.00
2019-01-09T19:09:33.797Z,96.40
2019-01-09T19:12:02.578Z,95.00
2019-01-09T19:14:31.006Z,102.10
2019-01-09T19:16:59.664Z,98.30
2019-01-09T19:19:28.696Z,101.47
2019-01-09T19:21:57.384Z,100.50
2019-01-09T19:24:25.658Z,102.37
2019-01-09T19:26:54.409Z,105.80
2019-01-09T19:29:23.037Z,106.60
2019-01-09T19:31:52.141Z,122.70
2019-01-09T19:34:20.551Z,106.20
2019-01-09T19:36:48.962Z,110.63
2019-01-09T19:39:17.244Z,108.13
2019-01-09T19:41:45.651Z,106.80
2019-01-09T19:44:14.005Z,102.10
2019-01-09T19:46:42.755Z,106.90
2019-01-09T19:49:11.111Z,104.30
2019-01-09T19:51:39.872Z,100.57
2019-01-09T19:54:09.150Z,106.50
2019-01-09T19:56:37.983Z,109.27
2019-01-09T19:59:06.614Z,98.70
2019-01-09T20:01:36.575Z,101.07
2019-01-09T20:04:05.130Z,105.33
2019-01-09T20:06:33.496Z,108.87
2019-01-09T20:09:02.067Z,103.43
2019-01-09T20:11:31.724Z,108.23
2019-01-09T20:14:00.397Z,103.80
2019-01-09T20:16:29.125Z,109.90
2019-01-09T20:18:57.582Z,118.97
2019-01-09T20:21:26.404Z,115.60
2019-01-09T20:23:55.141Z,128.80
2019-01-09T20:26:24.084Z,113.97
2019-01-09T20:28:52.584Z,114.20
2019-01-09T20:31:20.962Z,115.20
2019-01-09T20:33:49.389Z,115.90
2019-01-09T20:36:17.587Z,116.30
2019-01-09T20:38:45.978Z,115.67
2019-01-09T20:41:14.632Z,118.03
2019-01-09T20:43:43.470Z,124.13
2019-01-09T20:46:12.322Z,144.62
2019-01-09T20:48:40.734Z,152.23
2019-01-09T20:51:09.993Z,135.60
2019-01-09T20:53:38.832Z,115.03
2019-01-09T20:56:07.716Z,106.67
2019-01-09T20:58:36.579Z,100.50
2019-01-09T21:01:05.999Z,98.50
2019-01-09T21:03:34.762Z,108.87
2019-01-09T21:06:03.496Z,101.70
2019-01-09T21:08:31.908Z,92.00
2019-01-09T21:11:00.482Z,92.07
2019-01-09T21:13:29.224Z,85.83
2019-01-09T21:15:57.863Z,83.67
2019-01-09T21:18:26.389Z,81.33
2019-01-09T21:20:55.215Z,93.53
2019-01-09T21:23:23.967Z,93.53
2019-01-09T21:25:52.719Z,96.40
2019-01-09T21:28:21.032Z,86.37
2019-01-09T21:30:49.788Z,78.10
2019-01-09T21:33:18.384Z,75.23
2019-01-09T21:35:47.268Z,72.30
2019-01-09T21:38:16.159Z,68.83
2019-01-09T21:40:44.807Z,66.37
2019-01-09T21:43:13.468Z,57.33
2019-01-09T21:45:42.208Z,58.13
2019-01-09T21:48:10.915Z,52.90
2019-01-09T21:50:40.817Z,52.23
2019-01-09T21:53:09.475Z,52.27
2019-01-09T21:55:38.094Z,48.83
2019-01-09T21:58:06.789Z,42.97
2019-01-09T22:00:36.719Z,38.83
2019-01-09T22:03:05.492Z,38.23
2019-01-09T22:05:34.130Z,36.50
2019-01-09T22:08:03.063Z,35.23
2019-01-09T22:10:34.547Z,31.07
2019-01-09T22:13:03.476Z,30.27
2019-01-09T22:15:32.266Z,30.30
2019-01-09T22:18:00.775Z,30.93
2019-01-09T22:20:29.544Z,32.97
2019-01-09T22:22:58.030Z,35.97
2019-01-09T22:25:26.781Z,33.67
2019-01-09T22:27:55.671Z,31.07
2019-01-09T22:30:25.963Z,29.97
2019-01-09T22:32:54.748Z,31.20
2019-01-09T22:35:23.855Z,30.93
2019-01-09T22:37:52.564Z,30.13
2019-01-09T22:40:21.713Z,30.70
2019-01-09T22:42:50.424Z,39.73
2019-01-09T22:45:18.775Z,31.27
2019-01-09T22:47:47.130Z,28.27
2019-01-09T22:50:20.329Z,25.27
2019-01-09T22:52:49.089Z,26.43
2019-01-09T22:55:18.479Z,24.00
2019-01-09T22:57:47.185Z,23.03
2019-01-09T23:00:52.969Z,24.77
2019-01-09T23:03:21.752Z,25.27
2019-01-09T23:05:50.559Z,24.73
2019-01-09T23:08:19.392Z,22.97
2019-01-09T23:10:54.273Z,21.83
2019-01-09T23:13:18.334Z,19.07
2019-01-09T23:15:47.208Z,21.63
2019-01-09T23:18:15.864Z,23.27
2019-01-09T23:20:44.537Z,21.50
2019-01-09T23:23:13.144Z,22.73
2019-01-09T23:25:41.931Z,21.43
2019-01-09T23:28:10.767Z,19.27
2019-01-09T23:30:40.599Z,20.53
2019-01-09T23:33:08.994Z,19.00
2019-01-09T23:35:37.739Z,18.77
2019-01-09T23:38:06.376Z,17.77
2019-01-09T23:40:35.163Z,17.73
2019-01-09T23:43:03.780Z,17.23
2019-01-09T23:45:32.444Z,17.80
2019-01-09T23:48:01.182Z,19.27
2019-01-09T23:50:29.874Z,18.77
2019-01-09T23:52:58.240Z,17.80
2019-01-09T23:55:27.561Z,17.73
2019-01-09T23:57:56.356Z,16.63
